Nazareth, Pennsylvania
Current Conditions -  °F | °C
As of 3:51 AM on Saturday 29 Nov 2014 (Local Time) from KABE Reporting Station
Clear Clear  
Wind Chill: 18°   Ceiling: Unl
Heat Index: 18°   Visibility: 10mi
Dew Point: 12°   Wind: 0mph
Humidity: 78%   Direction: NA
Pressure: 30.3"   Gusts: NA
Location:  40.74°N, 75.31°W
Report Text: KABE 290851Z 00000KT 10SM CLR M08/M11 A3030 RMK AO2 SLP265 T10781111 50010 $
Loading
Personal Weather Stations






























Interactive Weather Map New forecast layout! Learn more

10-Day Weather Forecast

Advertisements
Track Severe Weather on mobile